sensor_id;sensor_type;location;lat;lon;timestamp;P1;durP1;ratioP1;P2;durP2;ratioP2
31808;SDS011;18379;48.208;-1.518;2023-04-06T00:02:59;71.50;;;64.57;;
31808;SDS011;18379;48.208;-1.518;2023-04-06T00:07:59;73.10;;;66.00;;
31808;SDS011;18379;48.208;-1.518;2023-04-06T00:13:00;74.43;;;66.80;;
31808;SDS011;18379;48.208;-1.518;2023-04-06T00:18:02;73.23;;;65.73;;
31808;SDS011;18379;48.208;-1.518;2023-04-06T00:23:03;76.33;;;68.10;;
31808;SDS011;18379;48.208;-1.518;2023-04-06T00:28:04;73.90;;;66.53;;
31808;SDS011;18379;48.208;-1.518;2023-04-06T00:33:05;71.97;;;64.40;;
31808;SDS011;18379;48.208;-1.518;2023-04-06T00:38:06;73.07;;;65.70;;
31808;SDS011;18379;48.208;-1.518;2023-04-06T00:43:07;72.97;;;65.83;;
31808;SDS011;18379;48.208;-1.518;2023-04-06T00:48:10;77.70;;;69.33;;
31808;SDS011;18379;48.208;-1.518;2023-04-06T00:53:11;77.83;;;69.50;;
31808;SDS011;18379;48.208;-1.518;2023-04-06T00:58:12;79.60;;;70.37;;
31808;SDS011;18379;48.208;-1.518;2023-04-06T01:03:13;77.87;;;70.03;;
31808;SDS011;18379;48.208;-1.518;2023-04-06T01:08:14;76.73;;;68.77;;
31808;SDS011;18379;48.208;-1.518;2023-04-06T01:13:14;77.83;;;69.70;;
31808;SDS011;18379;48.208;-1.518;2023-04-06T01:18:15;76.87;;;69.30;;
31808;SDS011;18379;48.208;-1.518;2023-04-06T01:23:16;78.30;;;70.07;;
31808;SDS011;18379;48.208;-1.518;2023-04-06T01:28:17;78.97;;;70.57;;
31808;SDS011;18379;48.208;-1.518;2023-04-06T01:33:18;78.57;;;70.20;;
31808;SDS011;18379;48.208;-1.518;2023-04-06T01:38:18;76.87;;;68.70;;
31808;SDS011;18379;48.208;-1.518;2023-04-06T01:43:19;81.93;;;73.13;;
31808;SDS011;18379;48.208;-1.518;2023-04-06T01:48:20;78.43;;;69.80;;
31808;SDS011;18379;48.208;-1.518;2023-04-06T01:53:21;85.60;;;72.93;;
31808;SDS011;18379;48.208;-1.518;2023-04-06T01:58:22;78.20;;;69.87;;
31808;SDS011;18379;48.208;-1.518;2023-04-06T02:03:23;81.90;;;71.23;;
31808;SDS011;18379;48.208;-1.518;2023-04-06T02:08:24;84.50;;;74.20;;
31808;SDS011;18379;48.208;-1.518;2023-04-06T02:13:24;79.73;;;71.37;;
31808;SDS011;18379;48.208;-1.518;2023-04-06T02:18:26;81.43;;;71.37;;
31808;SDS011;18379;48.208;-1.518;2023-04-06T02:23:27;83.70;;;70.37;;
31808;SDS011;18379;48.208;-1.518;2023-04-06T02:28:28;81.30;;;71.63;;
31808;SDS011;18379;48.208;-1.518;2023-04-06T02:33:29;73.73;;;66.53;;
31808;SDS011;18379;48.208;-1.518;2023-04-06T02:38:29;75.40;;;67.23;;
31808;SDS011;18379;48.208;-1.518;2023-04-06T02:43:30;74.40;;;66.70;;
31808;SDS011;18379;48.208;-1.518;2023-04-06T02:48:31;72.33;;;65.03;;
31808;SDS011;18379;48.208;-1.518;2023-04-06T02:53:32;77.63;;;68.63;;
31808;SDS011;18379;48.208;-1.518;2023-04-06T02:58:33;76.63;;;68.50;;
31808;SDS011;18379;48.208;-1.518;2023-04-06T03:03:34;74.37;;;66.57;;
31808;SDS011;18379;48.208;-1.518;2023-04-06T03:08:34;74.00;;;66.53;;
31808;SDS011;18379;48.208;-1.518;2023-04-06T03:13:36;74.53;;;66.80;;
31808;SDS011;18379;48.208;-1.518;2023-04-06T03:18:38;74.63;;;66.93;;
31808;SDS011;18379;48.208;-1.518;2023-04-06T03:23:39;72.87;;;65.60;;
31808;SDS011;18379;48.208;-1.518;2023-04-06T03:28:40;71.03;;;64.07;;
31808;SDS011;18379;48.208;-1.518;2023-04-06T03:33:41;69.63;;;63.23;;
31808;SDS011;18379;48.208;-1.518;2023-04-06T03:38:41;69.60;;;62.90;;
31808;SDS011;18379;48.208;-1.518;2023-04-06T03:43:42;69.30;;;62.80;;
31808;SDS011;18379;48.208;-1.518;2023-04-06T03:48:43;70.33;;;63.50;;
31808;SDS011;18379;48.208;-1.518;2023-04-06T03:53:44;69.07;;;62.87;;
31808;SDS011;18379;48.208;-1.518;2023-04-06T03:58:45;70.03;;;63.63;;
31808;SDS011;18379;48.208;-1.518;2023-04-06T04:03:49;70.60;;;64.00;;
31808;SDS011;18379;48.208;-1.518;2023-04-06T04:08:50;69.27;;;63.03;;
31808;SDS011;18379;48.208;-1.518;2023-04-06T04:13:51;67.67;;;61.67;;
31808;SDS011;18379;48.208;-1.518;2023-04-06T04:18:51;66.37;;;60.63;;
31808;SDS011;18379;48.208;-1.518;2023-04-06T04:23:52;66.13;;;60.43;;
31808;SDS011;18379;48.208;-1.518;2023-04-06T04:28:53;64.97;;;59.57;;
31808;SDS011;18379;48.208;-1.518;2023-04-06T04:33:54;65.13;;;59.47;;
31808;SDS011;18379;48.208;-1.518;2023-04-06T04:38:55;66.27;;;60.53;;
31808;SDS011;18379;48.208;-1.518;2023-04-06T04:43:56;68.27;;;62.30;;
31808;SDS011;18379;48.208;-1.518;2023-04-06T04:48:57;66.47;;;60.67;;
31808;SDS011;18379;48.208;-1.518;2023-04-06T04:53:57;71.53;;;65.13;;
31808;SDS011;18379;48.208;-1.518;2023-04-06T04:58:58;64.30;;;58.63;;
31808;SDS011;18379;48.208;-1.518;2023-04-06T05:03:59;66.60;;;60.37;;
31808;SDS011;18379;48.208;-1.518;2023-04-06T05:09:00;67.63;;;62.03;;
31808;SDS011;18379;48.208;-1.518;2023-04-06T05:14:04;62.70;;;57.30;;
31808;SDS011;18379;48.208;-1.518;2023-04-06T05:19:06;62.60;;;57.47;;
31808;SDS011;18379;48.208;-1.518;2023-04-06T05:24:08;62.90;;;57.47;;
31808;SDS011;18379;48.208;-1.518;2023-04-06T05:29:10;62.70;;;57.40;;
31808;SDS011;18379;48.208;-1.518;2023-04-06T05:34:13;69.33;;;63.10;;
31808;SDS011;18379;48.208;-1.518;2023-04-06T05:39:16;65.90;;;60.20;;
31808;SDS011;18379;48.208;-1.518;2023-04-06T05:44:18;63.30;;;58.13;;
31808;SDS011;18379;48.208;-1.518;2023-04-06T05:49:19;66.63;;;60.97;;
31808;SDS011;18379;48.208;-1.518;2023-04-06T05:54:20;68.57;;;62.43;;
31808;SDS011;18379;48.208;-1.518;2023-04-06T05:59:21;63.27;;;57.63;;
31808;SDS011;18379;48.208;-1.518;2023-04-06T06:04:25;61.43;;;56.60;;
31808;SDS011;18379;48.208;-1.518;2023-04-06T06:09:27;61.80;;;56.57;;
31808;SDS011;18379;48.208;-1.518;2023-04-06T06:14:28;68.13;;;62.37;;
31808;SDS011;18379;48.208;-1.518;2023-04-06T06:19:30;65.03;;;59.53;;
31808;SDS011;18379;48.208;-1.518;2023-04-06T06:24:32;66.47;;;60.80;;
31808;SDS011;18379;48.208;-1.518;2023-04-06T06:29:33;68.60;;;62.77;;
31808;SDS011;18379;48.208;-1.518;2023-04-06T06:34:34;66.57;;;60.80;;
31808;SDS011;18379;48.208;-1.518;2023-04-06T06:39:36;66.33;;;60.70;;
31808;SDS011;18379;48.208;-1.518;2023-04-06T06:44:37;65.43;;;59.97;;
31808;SDS011;18379;48.208;-1.518;2023-04-06T06:49:38;65.03;;;59.73;;
31808;SDS011;18379;48.208;-1.518;2023-04-06T06:54:41;67.53;;;62.27;;
31808;SDS011;18379;48.208;-1.518;2023-04-06T06:59:47;62.50;;;57.50;;
31808;SDS011;18379;48.208;-1.518;2023-04-06T07:04:52;61.40;;;56.70;;
31808;SDS011;18379;48.208;-1.518;2023-04-06T07:09:56;63.60;;;58.43;;
31808;SDS011;18379;48.208;-1.518;2023-04-06T07:14:57;65.97;;;60.47;;
31808;SDS011;18379;48.208;-1.518;2023-04-06T07:19:59;65.97;;;60.33;;
31808;SDS011;18379;48.208;-1.518;2023-04-06T07:25:00;65.97;;;60.57;;
31808;SDS011;18379;48.208;-1.518;2023-04-06T07:30:01;67.33;;;61.80;;
31808;SDS011;18379;48.208;-1.518;2023-04-06T07:35:03;65.47;;;59.93;;
31808;SDS011;18379;48.208;-1.518;2023-04-06T07:40:04;66.10;;;60.63;;
31808;SDS011;18379;48.208;-1.518;2023-04-06T07:45:06;69.07;;;63.40;;
31808;SDS011;18379;48.208;-1.518;2023-04-06T07:50:08;66.80;;;61.20;;
31808;SDS011;18379;48.208;-1.518;2023-04-06T07:55:10;71.70;;;65.23;;
31808;SDS011;18379;48.208;-1.518;2023-04-06T08:00:12;66.37;;;61.00;;
31808;SDS011;18379;48.208;-1.518;2023-04-06T08:05:14;68.57;;;62.73;;
31808;SDS011;18379;48.208;-1.518;2023-04-06T08:10:15;63.97;;;58.87;;
31808;SDS011;18379;48.208;-1.518;2023-04-06T08:15:16;66.10;;;60.63;;
31808;SDS011;18379;48.208;-1.518;2023-04-06T08:20:18;63.83;;;58.60;;
31808;SDS011;18379;48.208;-1.518;2023-04-06T08:25:19;63.27;;;58.27;;
31808;SDS011;18379;48.208;-1.518;2023-04-06T08:30:20;62.93;;;58.00;;
31808;SDS011;18379;48.208;-1.518;2023-04-06T08:35:22;63.30;;;58.30;;
31808;SDS011;18379;48.208;-1.518;2023-04-06T08:40:22;63.07;;;58.07;;
31808;SDS011;18379;48.208;-1.518;2023-04-06T08:45:23;63.60;;;58.37;;
31808;SDS011;18379;48.208;-1.518;2023-04-06T08:50:25;63.27;;;58.37;;
31808;SDS011;18379;48.208;-1.518;2023-04-06T08:55:26;63.17;;;58.33;;
31808;SDS011;18379;48.208;-1.518;2023-04-06T09:00:27;64.30;;;59.37;;
31808;SDS011;18379;48.208;-1.518;2023-04-06T09:05:30;66.80;;;61.43;;
31808;SDS011;18379;48.208;-1.518;2023-04-06T09:10:31;66.50;;;61.40;;
31808;SDS011;18379;48.208;-1.518;2023-04-06T09:15:32;66.07;;;60.67;;
31808;SDS011;18379;48.208;-1.518;2023-04-06T09:20:38;66.50;;;61.17;;
31808;SDS011;18379;48.208;-1.518;2023-04-06T09:25:49;64.23;;;58.97;;
31808;SDS011;18379;48.208;-1.518;2023-04-06T09:30:50;62.17;;;57.27;;
31808;SDS011;18379;48.208;-1.518;2023-04-06T09:35:51;63.10;;;58.13;;
31808;SDS011;18379;48.208;-1.518;2023-04-06T09:40:52;63.43;;;58.43;;
31808;SDS011;18379;48.208;-1.518;2023-04-06T09:45:52;63.70;;;58.70;;
31808;SDS011;18379;48.208;-1.518;2023-04-06T09:50:58;62.13;;;57.37;;
31808;SDS011;18379;48.208;-1.518;2023-04-06T09:56:03;65.23;;;60.10;;
31808;SDS011;18379;48.208;-1.518;2023-04-06T10:01:11;64.17;;;59.27;;
31808;SDS011;18379;48.208;-1.518;2023-04-06T10:06:19;64.83;;;59.60;;
31808;SDS011;18379;48.208;-1.518;2023-04-06T10:11:30;60.37;;;56.03;;
31808;SDS011;18379;48.208;-1.518;2023-04-06T10:16:37;62.87;;;58.17;;
31808;SDS011;18379;48.208;-1.518;2023-04-06T10:21:45;61.67;;;57.07;;
31808;SDS011;18379;48.208;-1.518;2023-04-06T10:27:03;62.00;;;57.50;;
31808;SDS011;18379;48.208;-1.518;2023-04-06T10:32:18;61.57;;;56.90;;
31808;SDS011;18379;48.208;-1.518;2023-04-06T10:38:00;61.87;;;57.30;;
31808;SDS011;18379;48.208;-1.518;2023-04-06T10:43:12;61.17;;;56.70;;
31808;SDS011;18379;48.208;-1.518;2023-04-06T10:48:18;57.73;;;53.67;;
31808;SDS011;18379;48.208;-1.518;2023-04-06T10:53:28;58.13;;;54.03;;
31808;SDS011;18379;48.208;-1.518;2023-04-06T10:58:33;60.43;;;56.03;;
31808;SDS011;18379;48.208;-1.518;2023-04-06T11:04:05;60.63;;;55.73;;
31808;SDS011;18379;48.208;-1.518;2023-04-06T11:09:08;61.27;;;56.67;;
31808;SDS011;18379;48.208;-1.518;2023-04-06T11:14:09;61.23;;;56.73;;
31808;SDS011;18379;48.208;-1.518;2023-04-06T11:19:10;60.77;;;56.27;;
31808;SDS011;18379;48.208;-1.518;2023-04-06T11:24:19;61.30;;;56.87;;
31808;SDS011;18379;48.208;-1.518;2023-04-06T11:29:21;57.93;;;53.73;;
31808;SDS011;18379;48.208;-1.518;2023-04-06T11:34:22;58.33;;;53.83;;
31808;SDS011;18379;48.208;-1.518;2023-04-06T11:39:25;57.90;;;53.80;;
31808;SDS011;18379;48.208;-1.518;2023-04-06T11:49:36;61.53;;;56.80;;
31808;SDS011;18379;48.208;-1.518;2023-04-06T11:54:39;61.33;;;56.57;;
31808;SDS011;18379;48.208;-1.518;2023-04-06T11:59:40;61.10;;;56.40;;
31808;SDS011;18379;48.208;-1.518;2023-04-06T12:04:41;60.63;;;56.13;;
31808;SDS011;18379;48.208;-1.518;2023-04-06T12:09:42;62.57;;;57.87;;
31808;SDS011;18379;48.208;-1.518;2023-04-06T12:14:47;59.50;;;54.67;;
31808;SDS011;18379;48.208;-1.518;2023-04-06T12:19:48;58.17;;;53.90;;
31808;SDS011;18379;48.208;-1.518;2023-04-06T12:24:48;58.80;;;54.37;;
31808;SDS011;18379;48.208;-1.518;2023-04-06T12:29:49;57.87;;;53.87;;
31808;SDS011;18379;48.208;-1.518;2023-04-06T12:34:51;57.70;;;53.57;;
31808;SDS011;18379;48.208;-1.518;2023-04-06T12:39:52;57.70;;;53.63;;
31808;SDS011;18379;48.208;-1.518;2023-04-06T12:44:53;57.93;;;53.83;;
31808;SDS011;18379;48.208;-1.518;2023-04-06T12:49:54;57.93;;;53.83;;
31808;SDS011;18379;48.208;-1.518;2023-04-06T12:54:55;58.43;;;54.13;;
31808;SDS011;18379;48.208;-1.518;2023-04-06T12:59:57;58.30;;;54.00;;
31808;SDS011;18379;48.208;-1.518;2023-04-06T13:04:58;58.83;;;54.43;;
31808;SDS011;18379;48.208;-1.518;2023-04-06T13:09:59;58.87;;;54.73;;
31808;SDS011;18379;48.208;-1.518;2023-04-06T13:15:00;59.93;;;55.60;;
31808;SDS011;18379;48.208;-1.518;2023-04-06T13:20:01;59.17;;;54.87;;
31808;SDS011;18379;48.208;-1.518;2023-04-06T13:25:03;60.63;;;56.07;;
31808;SDS011;18379;48.208;-1.518;2023-04-06T13:30:05;59.90;;;55.50;;
31808;SDS011;18379;48.208;-1.518;2023-04-06T13:35:06;60.97;;;56.37;;
31808;SDS011;18379;48.208;-1.518;2023-04-06T13:40:07;62.00;;;57.33;;
31808;SDS011;18379;48.208;-1.518;2023-04-06T13:45:09;60.73;;;56.13;;
31808;SDS011;18379;48.208;-1.518;2023-04-06T13:50:10;61.00;;;56.50;;
31808;SDS011;18379;48.208;-1.518;2023-04-06T13:55:11;61.23;;;56.37;;
31808;SDS011;18379;48.208;-1.518;2023-04-06T14:00:12;61.57;;;56.80;;
31808;SDS011;18379;48.208;-1.518;2023-04-06T14:05:14;62.23;;;57.23;;
31808;SDS011;18379;48.208;-1.518;2023-04-06T14:10:16;59.67;;;55.13;;
31808;SDS011;18379;48.208;-1.518;2023-04-06T14:15:16;57.87;;;53.57;;
31808;SDS011;18379;48.208;-1.518;2023-04-06T14:20:18;61.53;;;56.77;;
31808;SDS011;18379;48.208;-1.518;2023-04-06T14:25:19;59.37;;;55.00;;
31808;SDS011;18379;48.208;-1.518;2023-04-06T14:30:20;58.00;;;53.63;;
31808;SDS011;18379;48.208;-1.518;2023-04-06T14:35:20;58.03;;;53.53;;
31808;SDS011;18379;48.208;-1.518;2023-04-06T14:40:22;57.83;;;53.53;;
31808;SDS011;18379;48.208;-1.518;2023-04-06T14:45:22;58.00;;;53.60;;
31808;SDS011;18379;48.208;-1.518;2023-04-06T14:50:23;59.10;;;54.27;;
31808;SDS011;18379;48.208;-1.518;2023-04-06T14:55:24;58.63;;;54.00;;
31808;SDS011;18379;48.208;-1.518;2023-04-06T15:00:25;58.73;;;53.63;;
31808;SDS011;18379;48.208;-1.518;2023-04-06T15:05:26;58.73;;;54.17;;
31808;SDS011;18379;48.208;-1.518;2023-04-06T15:10:27;58.00;;;53.30;;
31808;SDS011;18379;48.208;-1.518;2023-04-06T15:15:28;58.27;;;53.63;;
31808;SDS011;18379;48.208;-1.518;2023-04-06T15:20:30;58.97;;;54.30;;
31808;SDS011;18379;48.208;-1.518;2023-04-06T15:25:30;60.33;;;55.23;;
31808;SDS011;18379;48.208;-1.518;2023-04-06T15:30:31;66.57;;;60.30;;
31808;SDS011;18379;48.208;-1.518;2023-04-06T15:35:32;67.10;;;60.97;;
31808;SDS011;18379;48.208;-1.518;2023-04-06T15:40:34;64.80;;;59.13;;
31808;SDS011;18379;48.208;-1.518;2023-04-06T15:45:45;63.77;;;57.97;;
31808;SDS011;18379;48.208;-1.518;2023-04-06T15:50:46;63.23;;;58.00;;
31808;SDS011;18379;48.208;-1.518;2023-04-06T15:55:47;62.07;;;56.97;;
31808;SDS011;18379;48.208;-1.518;2023-04-06T16:00:48;62.00;;;56.90;;
31808;SDS011;18379;48.208;-1.518;2023-04-06T16:05:49;62.60;;;57.00;;
31808;SDS011;18379;48.208;-1.518;2023-04-06T16:10:50;61.03;;;55.90;;
31808;SDS011;18379;48.208;-1.518;2023-04-06T16:15:51;60.43;;;55.60;;
31808;SDS011;18379;48.208;-1.518;2023-04-06T16:20:52;61.43;;;56.43;;
31808;SDS011;18379;48.208;-1.518;2023-04-06T16:25:53;65.07;;;59.43;;
31808;SDS011;18379;48.208;-1.518;2023-04-06T16:30:56;60.10;;;55.30;;
31808;SDS011;18379;48.208;-1.518;2023-04-06T16:35:57;62.23;;;56.80;;
31808;SDS011;18379;48.208;-1.518;2023-04-06T16:41:01;60.57;;;55.57;;
31808;SDS011;18379;48.208;-1.518;2023-04-06T16:46:03;62.97;;;57.63;;
31808;SDS011;18379;48.208;-1.518;2023-04-06T16:51:06;61.60;;;56.73;;
31808;SDS011;18379;48.208;-1.518;2023-04-06T17:02:07;62.40;;;57.27;;
31808;SDS011;18379;48.208;-1.518;2023-04-06T17:07:07;62.83;;;57.70;;
31808;SDS011;18379;48.208;-1.518;2023-04-06T17:12:09;62.07;;;57.13;;
31808;SDS011;18379;48.208;-1.518;2023-04-06T17:17:12;61.17;;;56.23;;
31808;SDS011;18379;48.208;-1.518;2023-04-06T17:22:13;64.53;;;59.37;;
31808;SDS011;18379;48.208;-1.518;2023-04-06T17:27:19;59.47;;;54.73;;
31808;SDS011;18379;48.208;-1.518;2023-04-06T17:32:22;61.47;;;56.63;;
31808;SDS011;18379;48.208;-1.518;2023-04-06T17:37:30;59.47;;;54.87;;
31808;SDS011;18379;48.208;-1.518;2023-04-06T17:42:31;59.73;;;55.30;;
31808;SDS011;18379;48.208;-1.518;2023-04-06T17:47:32;61.93;;;56.67;;
31808;SDS011;18379;48.208;-1.518;2023-04-06T17:52:33;61.50;;;56.67;;
31808;SDS011;18379;48.208;-1.518;2023-04-06T17:57:33;62.13;;;57.03;;
31808;SDS011;18379;48.208;-1.518;2023-04-06T18:02:35;60.93;;;56.00;;
31808;SDS011;18379;48.208;-1.518;2023-04-06T18:07:36;60.80;;;55.87;;
31808;SDS011;18379;48.208;-1.518;2023-04-06T18:12:36;61.60;;;56.73;;
31808;SDS011;18379;48.208;-1.518;2023-04-06T18:17:37;62.77;;;57.60;;
31808;SDS011;18379;48.208;-1.518;2023-04-06T18:28:07;63.40;;;58.03;;
31808;SDS011;18379;48.208;-1.518;2023-04-06T18:33:16;64.40;;;58.93;;
31808;SDS011;18379;48.208;-1.518;2023-04-06T18:38:17;57.37;;;53.13;;
31808;SDS011;18379;48.208;-1.518;2023-04-06T18:43:19;57.13;;;52.97;;
31808;SDS011;18379;48.208;-1.518;2023-04-06T18:48:20;57.20;;;52.80;;
31808;SDS011;18379;48.208;-1.518;2023-04-06T18:53:25;56.43;;;52.43;;
31808;SDS011;18379;48.208;-1.518;2023-04-06T18:58:26;57.00;;;52.53;;
31808;SDS011;18379;48.208;-1.518;2023-04-06T19:03:27;56.40;;;52.03;;
31808;SDS011;18379;48.208;-1.518;2023-04-06T19:08:27;56.10;;;52.30;;
31808;SDS011;18379;48.208;-1.518;2023-04-06T19:13:28;55.67;;;51.80;;
31808;SDS011;18379;48.208;-1.518;2023-04-06T19:18:29;57.03;;;52.77;;
31808;SDS011;18379;48.208;-1.518;2023-04-06T19:23:30;57.43;;;53.07;;
31808;SDS011;18379;48.208;-1.518;2023-04-06T19:28:33;58.57;;;54.10;;
31808;SDS011;18379;48.208;-1.518;2023-04-06T19:33:34;60.33;;;55.43;;
31808;SDS011;18379;48.208;-1.518;2023-04-06T19:38:36;60.47;;;55.57;;
31808;SDS011;18379;48.208;-1.518;2023-04-06T19:43:37;59.50;;;54.43;;
31808;SDS011;18379;48.208;-1.518;2023-04-06T19:48:39;58.93;;;54.27;;
31808;SDS011;18379;48.208;-1.518;2023-04-06T19:53:40;60.20;;;55.37;;
31808;SDS011;18379;48.208;-1.518;2023-04-06T19:58:41;58.67;;;54.23;;
31808;SDS011;18379;48.208;-1.518;2023-04-06T20:03:42;58.00;;;53.77;;
31808;SDS011;18379;48.208;-1.518;2023-04-06T20:08:45;58.23;;;53.73;;
31808;SDS011;18379;48.208;-1.518;2023-04-06T20:13:46;58.97;;;54.03;;
31808;SDS011;18379;48.208;-1.518;2023-04-06T20:18:47;57.80;;;53.33;;
31808;SDS011;18379;48.208;-1.518;2023-04-06T20:23:48;57.63;;;53.00;;
31808;SDS011;18379;48.208;-1.518;2023-04-06T20:28:49;55.83;;;51.57;;
31808;SDS011;18379;48.208;-1.518;2023-04-06T20:33:49;55.00;;;51.00;;
31808;SDS011;18379;48.208;-1.518;2023-04-06T20:38:50;55.50;;;51.47;;
31808;SDS011;18379;48.208;-1.518;2023-04-06T20:43:51;55.43;;;51.20;;
31808;SDS011;18379;48.208;-1.518;2023-04-06T20:48:52;55.87;;;51.17;;
31808;SDS011;18379;48.208;-1.518;2023-04-06T20:53:53;54.47;;;50.47;;
31808;SDS011;18379;48.208;-1.518;2023-04-06T20:58:56;54.77;;;50.77;;
31808;SDS011;18379;48.208;-1.518;2023-04-06T21:03:57;56.00;;;51.63;;
31808;SDS011;18379;48.208;-1.518;2023-04-06T21:08:59;60.47;;;55.53;;
31808;SDS011;18379;48.208;-1.518;2023-04-06T21:14:00;60.13;;;55.20;;
31808;SDS011;18379;48.208;-1.518;2023-04-06T21:19:00;60.80;;;55.60;;
31808;SDS011;18379;48.208;-1.518;2023-04-06T21:24:01;62.03;;;56.53;;
31808;SDS011;18379;48.208;-1.518;2023-04-06T21:29:02;62.10;;;56.73;;
31808;SDS011;18379;48.208;-1.518;2023-04-06T21:34:06;62.93;;;57.73;;
31808;SDS011;18379;48.208;-1.518;2023-04-06T21:39:09;63.93;;;57.93;;
31808;SDS011;18379;48.208;-1.518;2023-04-06T21:44:13;62.03;;;56.83;;
31808;SDS011;18379;48.208;-1.518;2023-04-06T21:49:18;64.50;;;58.70;;
31808;SDS011;18379;48.208;-1.518;2023-04-06T21:54:30;60.63;;;55.40;;
31808;SDS011;18379;48.208;-1.518;2023-04-06T21:59:35;61.37;;;56.50;;
31808;SDS011;18379;48.208;-1.518;2023-04-06T22:04:36;64.27;;;58.63;;
31808;SDS011;18379;48.208;-1.518;2023-04-06T22:09:38;68.23;;;61.67;;
31808;SDS011;18379;48.208;-1.518;2023-04-06T22:14:39;63.73;;;58.03;;
31808;SDS011;18379;48.208;-1.518;2023-04-06T22:19:41;64.03;;;58.37;;
31808;SDS011;18379;48.208;-1.518;2023-04-06T22:24:45;65.97;;;59.90;;
31808;SDS011;18379;48.208;-1.518;2023-04-06T22:29:50;71.87;;;65.07;;
31808;SDS011;18379;48.208;-1.518;2023-04-06T22:34:54;60.73;;;55.57;;
31808;SDS011;18379;48.208;-1.518;2023-04-06T22:39:55;63.23;;;57.23;;
31808;SDS011;18379;48.208;-1.518;2023-04-06T22:44:56;60.77;;;55.10;;
31808;SDS011;18379;48.208;-1.518;2023-04-06T22:49:59;59.13;;;54.13;;
31808;SDS011;18379;48.208;-1.518;2023-04-06T22:55:00;60.20;;;54.87;;
31808;SDS011;18379;48.208;-1.518;2023-04-06T23:00:01;59.97;;;55.17;;
31808;SDS011;18379;48.208;-1.518;2023-04-06T23:05:08;62.67;;;57.07;;
31808;SDS011;18379;48.208;-1.518;2023-04-06T23:10:13;65.43;;;59.47;;
31808;SDS011;18379;48.208;-1.518;2023-04-06T23:15:15;64.10;;;58.33;;
31808;SDS011;18379;48.208;-1.518;2023-04-06T23:20:16;65.23;;;59.07;;
31808;SDS011;18379;48.208;-1.518;2023-04-06T23:25:20;62.17;;;56.57;;
31808;SDS011;18379;48.208;-1.518;2023-04-06T23:30:25;58.97;;;54.17;;
31808;SDS011;18379;48.208;-1.518;2023-04-06T23:35:27;60.67;;;55.43;;
31808;SDS011;18379;48.208;-1.518;2023-04-06T23:40:30;60.03;;;54.67;;
31808;SDS011;18379;48.208;-1.518;2023-04-06T23:45:32;61.43;;;55.73;;
31808;SDS011;18379;48.208;-1.518;2023-04-06T23:50:36;63.47;;;57.83;;
31808;SDS011;18379;48.208;-1.518;2023-04-06T23:55:39;61.97;;;56.67;;
